createdAt,value
2023-05-05T00:00:56.901Z,9.668081
2023-05-05T00:01:57.045Z,9.668100
2023-05-05T00:02:56.920Z,9.667996
2023-05-05T00:03:56.979Z,9.667988
2023-05-05T00:04:56.835Z,9.668035
2023-05-05T00:05:56.856Z,9.668004
2023-05-05T00:06:57.088Z,9.668029
2023-05-05T00:07:56.841Z,9.668032
2023-05-05T00:08:56.888Z,9.668027
2023-05-05T00:09:56.820Z,9.668036
2023-05-05T00:10:56.828Z,9.668056
2023-05-05T00:11:56.831Z,9.668042
2023-05-05T00:12:56.878Z,9.668028
2023-05-05T00:13:56.796Z,9.668006
2023-05-05T00:14:56.784Z,9.668024
2023-05-05T00:15:56.826Z,9.667962
2023-05-05T00:16:56.899Z,9.668010
2023-05-05T00:17:56.793Z,9.668018
2023-05-05T00:18:56.758Z,9.668051
2023-05-05T00:19:56.736Z,9.668049
2023-05-05T00:20:56.731Z,9.668016
2023-05-05T00:21:56.732Z,9.668032
2023-05-05T00:22:56.714Z,9.668030
2023-05-05T00:23:56.709Z,9.668019
2023-05-05T00:24:56.702Z,9.668016
2023-05-05T00:25:56.698Z,9.667994
2023-05-05T00:26:56.690Z,9.667957
2023-05-05T00:27:56.674Z,9.668103
2023-05-05T00:28:56.692Z,9.668045
2023-05-05T00:29:56.661Z,9.668052
2023-05-05T00:30:56.697Z,9.667997
2023-05-05T00:31:56.662Z,9.668009
2023-05-05T00:32:56.663Z,9.668000
2023-05-05T00:33:56.694Z,9.668024
2023-05-05T00:34:56.651Z,9.668039
2023-05-05T00:35:56.652Z,9.668054
2023-05-05T00:36:56.606Z,9.668032
2023-05-05T00:37:56.600Z,9.668040
2023-05-05T00:38:56.594Z,9.668006
2023-05-05T00:39:56.575Z,9.668024
2023-05-05T00:40:56.582Z,9.668017
2023-05-05T00:41:56.562Z,9.668043
2023-05-05T00:42:56.665Z,9.668019
2023-05-05T00:43:56.591Z,9.668040
2023-05-05T00:44:57.365Z,9.668015
2023-05-05T00:45:56.577Z,9.667966
2023-05-05T00:46:56.527Z,9.667995
2023-05-05T00:47:56.594Z,9.668005
2023-05-05T00:48:56.567Z,9.668007
2023-05-05T00:49:56.545Z,9.668034
2023-05-05T00:50:56.504Z,9.667944
2023-05-05T00:51:56.489Z,9.667927
2023-05-05T00:52:56.501Z,9.668000
2023-05-05T00:53:56.512Z,9.667901
2023-05-05T00:54:56.493Z,9.667999
2023-05-05T00:55:56.534Z,9.667939
2023-05-05T00:56:56.502Z,9.667897
2023-05-05T00:57:56.483Z,9.667986
2023-05-05T00:58:56.469Z,9.668003
2023-05-05T01:00:28.399Z,9.668038
2023-05-05T01:00:56.477Z,9.667979
2023-05-05T01:02:29.988Z,9.667999
2023-05-05T01:02:56.454Z,9.667974
2023-05-05T01:04:28.938Z,9.667980
2023-05-05T01:04:56.394Z,9.667965
2023-05-05T01:06:29.441Z,9.667965
2023-05-05T01:07:28.358Z,9.667970
2023-05-05T01:07:57.065Z,9.667966
2023-05-05T01:08:56.370Z,9.667935
2023-05-05T01:10:29.979Z,9.667933
2023-05-05T01:10:56.368Z,9.667978
2023-05-05T01:12:29.811Z,9.667958
2023-05-05T01:12:56.420Z,9.667956
2023-05-05T01:13:56.503Z,9.667980
2023-05-05T01:14:56.348Z,9.668018
2023-05-05T01:15:56.343Z,9.668005
2023-05-05T01:16:56.328Z,9.667974
2023-05-05T01:17:56.405Z,9.668007
2023-05-05T01:18:56.384Z,9.667968
2023-05-05T01:19:56.339Z,9.667999
2023-05-05T01:20:57.176Z,9.667985
2023-05-05T01:21:56.279Z,9.668013
2023-05-05T01:22:56.295Z,9.667962
2023-05-05T01:23:56.279Z,9.668003
2023-05-05T01:24:57.099Z,9.668023
2023-05-05T01:25:56.253Z,9.668028
2023-05-05T01:26:56.283Z,9.668043
2023-05-05T01:27:56.248Z,9.667992
2023-05-05T01:28:56.305Z,9.668009
2023-05-05T01:29:56.248Z,9.667970
2023-05-05T01:31:29.062Z,9.667978
2023-05-05T01:31:56.393Z,9.667995
2023-05-05T01:32:56.211Z,9.667933
2023-05-05T01:33:56.179Z,9.667969
2023-05-05T01:34:56.134Z,9.667975
2023-05-05T01:35:56.160Z,9.667996
2023-05-05T01:36:56.155Z,9.667983
2023-05-05T01:37:56.155Z,9.667998
2023-05-05T01:38:56.163Z,9.667991
2023-05-05T01:39:56.150Z,9.667982
2023-05-05T01:40:56.101Z,9.667968
2023-05-05T01:41:56.122Z,9.667972
2023-05-05T01:42:56.088Z,9.667990
2023-05-05T01:43:56.124Z,9.667975
2023-05-05T01:44:56.606Z,9.667958
2023-05-05T01:45:56.087Z,9.667991
2023-05-05T01:46:56.073Z,9.667997
2023-05-05T01:47:56.118Z,9.667985
2023-05-05T01:48:56.054Z,9.667982
2023-05-05T01:49:56.059Z,9.667980
2023-05-05T01:50:56.035Z,9.667961
2023-05-05T01:51:56.036Z,9.667933
2023-05-05T01:52:56.023Z,9.667984
2023-05-05T01:53:56.011Z,9.667971
2023-05-05T01:54:56.021Z,9.667974
2023-05-05T01:55:56.017Z,9.667922
2023-05-05T01:56:55.985Z,9.667947
2023-05-05T01:57:56.547Z,9.667923
2023-05-05T01:58:55.983Z,9.668000
2023-05-05T01:59:55.945Z,9.667986
2023-05-05T02:00:56.025Z,9.667953
2023-05-05T02:01:55.980Z,9.667986
2023-05-05T02:02:55.987Z,9.667946
2023-05-05T02:03:55.923Z,9.667947
2023-05-05T02:04:55.909Z,9.667990
2023-05-05T02:05:55.893Z,9.667947
2023-05-05T02:06:55.946Z,9.667983
2023-05-05T02:07:55.892Z,9.668000
2023-05-05T02:08:55.970Z,9.667967
2023-05-05T02:09:55.891Z,9.667998
2023-05-05T02:10:55.872Z,9.667950
2023-05-05T02:11:55.864Z,9.667987
2023-05-05T02:12:55.925Z,9.668003
2023-05-05T02:13:55.937Z,9.667970
2023-05-05T02:14:55.842Z,9.667993
2023-05-05T02:15:55.834Z,9.667959
2023-05-05T02:16:55.804Z,9.667941
2023-05-05T02:17:55.911Z,9.667970
2023-05-05T02:18:55.818Z,9.667993
2023-05-05T02:19:55.802Z,9.667994
2023-05-05T02:20:55.849Z,9.668046
2023-05-05T02:21:55.802Z,9.668005
2023-05-05T02:22:56.077Z,9.668021
2023-05-05T02:23:55.755Z,9.667991
2023-05-05T02:24:55.767Z,9.667972
2023-05-05T02:25:55.806Z,9.667975
2023-05-05T02:26:55.745Z,9.668004
2023-05-05T02:27:55.741Z,9.667990
2023-05-05T02:28:55.739Z,9.668003
2023-05-05T02:29:55.753Z,9.667996
2023-05-05T02:30:55.715Z,9.667943
2023-05-05T02:31:55.710Z,9.667973
2023-05-05T02:32:55.743Z,9.667932
2023-05-05T02:33:55.688Z,9.667944
2023-05-05T02:34:56.727Z,9.667956
2023-05-05T02:35:55.685Z,9.667995
2023-05-05T02:36:55.704Z,9.667942
2023-05-05T02:37:56.624Z,9.667983
2023-05-05T02:38:55.655Z,9.667973
2023-05-05T02:39:55.663Z,9.667953
2023-05-05T02:40:55.693Z,9.667966
2023-05-05T02:41:55.627Z,9.667982
2023-05-05T02:42:55.698Z,9.667983
2023-05-05T02:43:57.528Z,9.667994
2023-05-05T02:44:55.615Z,9.667997
2023-05-05T02:45:55.619Z,9.668014
2023-05-05T02:46:55.678Z,9.667932
2023-05-05T02:47:55.627Z,9.667918
2023-05-05T02:48:55.595Z,9.667898
2023-05-05T02:49:55.561Z,9.667888
2023-05-05T02:50:55.549Z,9.667936
2023-05-05T02:51:55.583Z,9.667959
2023-05-05T02:52:55.568Z,9.667871
2023-05-05T02:53:55.540Z,9.667896
2023-05-05T02:54:55.526Z,9.667890
2023-05-05T02:55:55.523Z,9.667942
2023-05-05T02:56:55.544Z,9.668003
2023-05-05T02:57:55.511Z,9.667914
2023-05-05T02:58:55.503Z,9.667985
2023-05-05T02:59:55.484Z,9.667931
2023-05-05T03:00:55.472Z,9.667910
2023-05-05T03:01:55.558Z,9.667895
2023-05-05T03:02:55.556Z,9.667955
2023-05-05T03:03:55.591Z,9.667940
2023-05-05T03:04:55.452Z,9.667886
2023-05-05T03:05:55.442Z,9.668004
2023-05-05T03:06:55.442Z,9.668024
2023-05-05T03:07:55.461Z,9.667963
2023-05-05T03:08:55.452Z,9.667985
2023-05-05T03:09:55.409Z,9.667957
2023-05-05T03:10:55.407Z,9.668020
2023-05-05T03:11:55.382Z,9.667961
2023-05-05T03:12:55.433Z,9.667885
2023-05-05T03:13:55.394Z,9.667973
2023-05-05T03:14:55.422Z,9.667983
2023-05-05T03:15:55.401Z,9.668038
2023-05-05T03:16:55.380Z,9.667974
2023-05-05T03:17:55.378Z,9.667996
2023-05-05T03:18:55.355Z,9.668027
2023-05-05T03:19:55.315Z,9.667963
2023-05-05T03:20:55.376Z,9.668010
2023-05-05T03:21:55.338Z,9.667971
2023-05-05T03:22:55.301Z,9.667904
2023-05-05T03:23:55.346Z,9.667960
2023-05-05T03:24:55.282Z,9.668031
2023-05-05T03:25:55.285Z,9.668037
2023-05-05T03:26:55.271Z,9.668093
2023-05-05T03:27:55.250Z,9.667982
2023-05-05T03:28:55.308Z,9.667951
2023-05-05T03:29:55.246Z,9.668000
2023-05-05T03:30:55.236Z,9.667913
2023-05-05T03:31:55.294Z,9.667899
2023-05-05T03:32:55.319Z,9.667871
2023-05-05T03:33:55.237Z,9.667877
2023-05-05T03:34:55.231Z,9.667973
2023-05-05T03:35:55.204Z,9.667983
2023-05-05T03:36:55.223Z,9.667947
2023-05-05T03:37:55.189Z,9.667941
2023-05-05T03:38:55.202Z,9.667920
2023-05-05T03:39:55.178Z,9.667890
2023-05-05T03:40:55.221Z,9.667956
2023-05-05T03:41:55.165Z,9.667944
2023-05-05T03:42:55.144Z,9.667956
2023-05-05T03:43:55.170Z,9.667934
2023-05-05T03:44:55.129Z,9.667970
2023-05-05T03:45:55.122Z,9.668001
2023-05-05T03:46:55.106Z,9.667958
2023-05-05T04:06:04.926Z,9.667522
2023-05-05T04:07:04.905Z,9.667721
2023-05-05T04:08:04.904Z,9.667783
2023-05-05T04:09:04.903Z,9.667859
2023-05-05T04:10:04.960Z,9.667917
2023-05-05T04:11:04.872Z,9.667959
2023-05-05T04:12:04.871Z,9.668046
2023-05-05T04:13:04.911Z,9.668011
2023-05-05T04:14:04.840Z,9.667967
2023-05-05T04:15:04.839Z,9.668001
2023-05-05T04:16:04.873Z,9.668011
2023-05-05T04:17:04.852Z,9.668018
2023-05-05T04:18:06.116Z,9.668016
2023-05-05T04:19:04.808Z,9.668033
2023-05-05T04:20:04.818Z,9.667990
2023-05-05T04:21:04.828Z,9.667971
2023-05-05T04:22:04.802Z,9.668014
2023-05-05T04:23:04.757Z,9.667980
2023-05-05T04:24:04.779Z,9.667963
2023-05-05T04:25:04.818Z,9.667969
2023-05-05T04:26:04.784Z,9.667982
2023-05-05T04:27:04.732Z,9.667989
2023-05-05T04:28:05.524Z,9.667933
2023-05-05T04:29:04.772Z,9.667994
2023-05-05T04:30:04.735Z,9.667954
2023-05-05T04:31:04.817Z,9.667963
2023-05-05T04:32:04.717Z,9.667978
2023-05-05T04:33:04.712Z,9.667937
2023-05-05T04:34:04.740Z,9.667931
2023-05-05T04:35:04.692Z,9.667928
2023-05-05T04:36:04.699Z,9.667981
2023-05-05T04:37:04.690Z,9.667974
2023-05-05T04:38:04.680Z,9.667984
2023-05-05T04:39:04.709Z,9.667951
2023-05-05T04:40:04.661Z,9.667969
2023-05-05T04:41:04.661Z,9.667955
2023-05-05T04:42:04.633Z,9.667944
2023-05-05T04:43:04.631Z,9.667974
2023-05-05T04:44:05.494Z,9.667931
2023-05-05T04:45:04.653Z,9.667958
2023-05-05T04:46:04.678Z,9.667953
2023-05-05T04:47:04.635Z,9.667907
2023-05-05T04:48:04.622Z,9.667942
2023-05-05T04:49:04.618Z,9.667974
2023-05-05T04:50:04.633Z,9.667956
2023-05-05T04:51:04.648Z,9.667940
2023-05-05T04:52:05.555Z,9.667925
2023-05-05T04:53:05.529Z,9.667939
2023-05-05T04:54:04.596Z,9.667922
2023-05-05T04:55:04.593Z,9.667903
2023-05-05T04:56:05.531Z,9.667838
2023-05-05T04:57:05.530Z,9.667820
2023-05-05T04:58:05.534Z,9.667821
2023-05-05T04:59:04.525Z,9.667849
2023-05-05T05:00:04.546Z,9.667892
2023-05-05T05:01:04.487Z,9.667871
2023-05-05T05:02:05.536Z,9.667852
2023-05-05T05:03:04.534Z,9.667890
2023-05-05T05:04:04.720Z,9.667894
2023-05-05T05:05:04.513Z,9.667882
2023-05-05T05:06:04.519Z,9.667892
2023-05-05T05:07:36.395Z,9.667881
2023-05-05T05:08:36.960Z,9.667865
2023-05-05T05:15:02.892Z,9.667855
2023-05-05T05:16:02.898Z,9.667927
2023-05-05T05:17:02.842Z,9.667866
2023-05-05T05:18:02.868Z,9.667889
2023-05-05T05:19:02.831Z,9.667889
2023-05-05T05:20:02.823Z,9.667893
2023-05-05T05:21:02.834Z,9.667895
2023-05-05T05:22:02.817Z,9.667888
2023-05-05T05:23:03.790Z,9.667847
2023-05-05T05:24:02.808Z,9.667888
2023-05-05T05:25:02.790Z,9.667943
2023-05-05T05:26:02.792Z,9.667901
2023-05-05T05:27:02.757Z,9.667887
2023-05-05T05:28:10.117Z,9.667904
2023-05-05T05:29:04.756Z,9.667911
2023-05-05T05:30:02.736Z,9.667935
2023-05-05T05:31:02.717Z,9.668026
2023-05-05T05:32:02.743Z,9.668015
2023-05-05T05:33:02.716Z,9.668068
2023-05-05T05:34:02.798Z,9.668121
2023-05-05T05:35:02.718Z,9.668068
2023-05-05T05:36:02.687Z,9.667970
2023-05-05T05:37:02.687Z,9.667965
2023-05-05T05:38:02.682Z,9.667943
2023-05-05T05:39:02.876Z,9.667930
2023-05-05T05:40:02.658Z,9.667933
2023-05-05T05:41:02.661Z,9.667947
2023-05-05T05:42:02.662Z,9.667974
2023-05-05T05:43:02.629Z,9.667953
2023-05-05T05:44:02.634Z,9.667947
2023-05-05T05:45:02.647Z,9.667910
2023-05-05T05:46:02.636Z,9.667868
2023-05-05T05:47:02.607Z,9.667925
2023-05-05T05:48:02.658Z,9.667983
2023-05-05T05:49:02.630Z,9.667959
2023-05-05T05:50:02.610Z,9.667933
2023-05-05T05:51:02.593Z,9.667921
2023-05-05T05:52:02.554Z,9.667989
2023-05-05T05:53:02.551Z,9.667947
2023-05-05T05:54:02.582Z,9.667934
2023-05-05T05:55:02.587Z,9.667944
2023-05-05T05:56:04.416Z,9.667938
2023-05-05T05:57:02.574Z,9.667912
2023-05-05T05:58:02.525Z,9.668034
2023-05-05T05:59:02.506Z,9.667956
2023-05-05T06:00:02.629Z,9.667976
2023-05-05T06:01:02.516Z,9.667997
2023-05-05T06:02:02.530Z,9.668002
2023-05-05T06:03:02.600Z,9.668013
2023-05-05T06:04:02.517Z,9.667979
2023-05-05T06:05:02.474Z,9.667971
2023-05-05T06:06:02.512Z,9.667964
2023-05-05T06:07:02.469Z,9.667949
2023-05-05T06:08:02.478Z,9.667973
2023-05-05T06:09:02.451Z,9.667999
2023-05-05T06:10:14.445Z,9.668026
2023-05-05T06:11:04.472Z,9.667964
2023-05-05T06:12:02.476Z,9.667992
2023-05-05T06:13:02.525Z,9.667976
2023-05-05T06:14:02.425Z,9.668002
2023-05-05T06:15:02.417Z,9.668002
2023-05-05T06:16:02.465Z,9.668019
2023-05-05T06:17:02.428Z,9.668028
2023-05-05T06:18:02.420Z,9.668015
2023-05-05T06:19:02.419Z,9.668006
2023-05-05T06:20:02.391Z,9.668015
2023-05-05T06:21:02.383Z,9.667977
2023-05-05T06:22:02.380Z,9.667953
2023-05-05T06:23:02.352Z,9.667965
2023-05-05T06:24:02.360Z,9.668012
2023-05-05T06:25:02.357Z,9.667988
2023-05-05T06:26:02.413Z,9.667988
2023-05-05T06:27:02.320Z,9.667994
2023-05-05T06:28:02.302Z,9.667998
2023-05-05T06:29:02.328Z,9.667995
2023-05-05T06:30:02.318Z,9.668007
2023-05-05T06:31:02.327Z,9.667977
2023-05-05T06:32:02.299Z,9.667972
2023-05-05T06:33:02.355Z,9.667968
2023-05-05T06:34:02.307Z,9.667957
2023-05-05T06:35:02.245Z,9.667983
2023-05-05T06:36:02.238Z,9.667978
2023-05-05T06:37:02.285Z,9.668014
2023-05-05T06:38:02.266Z,9.667979
2023-05-05T06:39:02.253Z,9.668047
2023-05-05T06:40:02.253Z,9.667983
2023-05-05T06:41:02.215Z,9.668018
2023-05-05T06:42:02.222Z,9.667977
2023-05-05T06:43:02.183Z,9.668006
2023-05-05T06:44:02.256Z,9.667984
2023-05-05T06:45:02.222Z,9.667988
2023-05-05T06:46:02.179Z,9.668009
2023-05-05T06:47:02.263Z,9.668007
2023-05-05T06:48:02.234Z,9.668036
2023-05-05T06:49:02.175Z,9.668074
2023-05-05T06:50:02.405Z,9.668047
2023-05-05T06:51:03.802Z,9.668038
2023-05-05T06:52:02.129Z,9.668013
2023-05-05T06:53:02.143Z,9.668013
2023-05-05T06:54:03.603Z,9.668035
2023-05-05T06:55:02.158Z,9.668025
2023-05-05T06:56:02.981Z,9.668016
2023-05-05T06:57:02.088Z,9.668009
2023-05-05T06:58:02.155Z,9.668003
2023-05-05T06:59:02.068Z,9.668001
2023-05-05T07:00:02.113Z,9.668001
2023-05-05T07:01:03.026Z,9.668059
2023-05-05T07:02:02.979Z,9.668011
2023-05-05T07:03:02.162Z,9.668013
2023-05-05T07:04:02.111Z,9.668006
2023-05-05T07:05:02.025Z,9.668052
2023-05-05T07:06:02.045Z,9.668040
2023-05-05T07:07:02.029Z,9.668043
2023-05-05T07:08:02.048Z,9.668080
2023-05-05T07:09:02.014Z,9.668085
2023-05-05T07:10:02.003Z,9.668080
2023-05-05T07:11:02.062Z,9.668088
2023-05-05T07:12:02.010Z,9.668035
2023-05-05T07:13:02.063Z,9.668055
2023-05-05T07:14:02.084Z,9.668053
2023-05-05T07:15:12.227Z,9.668078
2023-05-05T07:16:03.938Z,9.668088
2023-05-05T07:17:02.145Z,9.668081
2023-05-05T07:18:02.280Z,9.668053
2023-05-05T07:19:01.910Z,9.668040
2023-05-05T07:20:01.916Z,9.668093
2023-05-05T07:21:02.498Z,9.668131
2023-05-05T07:22:01.889Z,9.668077
2023-05-05T07:23:01.946Z,9.668060
2023-05-05T07:24:01.941Z,9.668048
2023-05-05T07:25:01.875Z,9.668056
2023-05-05T07:26:01.872Z,9.668043
2023-05-05T07:27:01.892Z,9.668092
2023-05-05T07:28:02.008Z,9.668046
2023-05-05T07:29:01.855Z,9.668029
2023-05-05T07:30:03.290Z,9.668046
2023-05-05T07:31:01.832Z,9.668066
2023-05-05T07:32:01.863Z,9.668093
2023-05-05T07:33:01.856Z,9.668066
2023-05-05T07:34:01.877Z,9.668079
2023-05-05T07:35:01.831Z,9.668017
2023-05-05T07:36:01.818Z,9.668020
2023-05-05T07:37:01.823Z,9.668059
2023-05-05T07:38:01.793Z,9.668019
2023-05-05T07:39:01.799Z,9.668047
2023-05-05T07:40:01.774Z,9.668043
2023-05-05T07:41:01.765Z,9.668065
2023-05-05T07:42:02.527Z,9.668045
2023-05-05T07:43:01.760Z,9.668066
2023-05-05T07:44:01.769Z,9.668064
2023-05-05T07:45:02.542Z,9.668068
2023-05-05T07:46:01.845Z,9.668048
2023-05-05T07:47:01.728Z,9.668026
2023-05-05T07:48:01.809Z,9.668017
2023-05-05T07:49:01.721Z,9.668032
2023-05-05T07:50:01.780Z,9.668002
2023-05-05T07:51:01.684Z,9.668012
2023-05-05T07:52:01.767Z,9.668028
2023-05-05T07:53:10.733Z,9.668055
2023-05-05T07:54:03.691Z,9.668074
2023-05-05T07:55:01.678Z,9.667991
2023-05-05T07:56:01.702Z,9.667985
2023-05-05T07:57:01.696Z,9.668030
2023-05-05T07:58:01.676Z,9.668023
2023-05-05T07:59:01.628Z,9.668049
2023-05-05T08:00:01.652Z,9.668021
2023-05-05T08:01:01.712Z,9.668100
2023-05-05T08:02:01.782Z,9.668088
2023-05-05T08:03:01.741Z,9.668097
2023-05-05T08:04:01.709Z,9.668052
2023-05-05T08:05:01.625Z,9.668042
2023-05-05T08:06:01.599Z,9.668041
2023-05-05T08:07:01.720Z,9.668051
2023-05-05T08:08:01.589Z,9.668033
2023-05-05T08:09:01.600Z,9.668024
2023-05-05T08:10:01.644Z,9.668050
2023-05-05T08:11:01.564Z,9.667998
2023-05-05T08:12:01.660Z,9.668010
2023-05-05T08:13:01.635Z,9.668000
2023-05-05T08:14:01.557Z,9.668007
2023-05-05T08:15:01.537Z,9.667991
2023-05-05T08:16:01.554Z,9.668019
2023-05-05T08:17:01.538Z,9.667997
2023-05-05T08:18:01.579Z,9.667970
2023-05-05T08:19:02.428Z,9.668003
2023-05-05T08:20:01.525Z,9.667994
2023-05-05T08:21:01.569Z,9.667989
2023-05-05T08:22:01.655Z,9.667978
2023-05-05T08:23:01.485Z,9.668012
2023-05-05T08:24:01.479Z,9.668020
2023-05-05T08:25:01.457Z,9.668031
2023-05-05T08:26:02.024Z,9.668058
2023-05-05T08:27:01.486Z,9.668062
2023-05-05T08:28:01.445Z,9.668036
2023-05-05T08:29:01.410Z,9.668040
2023-05-05T08:30:02.010Z,9.668010
2023-05-05T08:31:01.452Z,9.668007
2023-05-05T08:32:01.441Z,9.667987
2023-05-05T08:33:01.477Z,9.667996
2023-05-05T08:34:01.496Z,9.667963
2023-05-05T08:35:01.389Z,9.668014
2023-05-05T08:36:01.392Z,9.667982
2023-05-05T08:37:01.364Z,9.667992
2023-05-05T08:38:01.383Z,9.668015
2023-05-05T08:39:01.449Z,9.668001
2023-05-05T08:40:01.369Z,9.668011
2023-05-05T08:41:01.375Z,9.667985
2023-05-05T08:42:01.325Z,9.668014
2023-05-05T08:43:01.392Z,9.667997
2023-05-05T08:44:01.322Z,9.668053
2023-05-05T08:45:01.341Z,9.668014
2023-05-05T08:46:01.292Z,9.667996
2023-05-05T08:47:01.507Z,9.668004
2023-05-05T08:48:01.370Z,9.668039
2023-05-05T08:49:01.311Z,9.668065
2023-05-05T08:50:01.380Z,9.668077
2023-05-05T08:51:03.321Z,9.668045
2023-05-05T08:52:01.256Z,9.668037
2023-05-05T08:53:01.313Z,9.668043
2023-05-05T08:54:01.267Z,9.668082
2023-05-05T08:55:01.330Z,9.668050
2023-05-05T08:56:01.240Z,9.668038
2023-05-05T08:57:02.070Z,9.667997
2023-05-05T08:58:01.197Z,9.667979
2023-05-05T08:59:01.261Z,9.668001
2023-05-05T09:00:01.189Z,9.667999
2023-05-05T09:01:01.245Z,9.668000
2023-05-05T09:02:01.242Z,9.668056
2023-05-05T09:03:02.057Z,9.668077
2023-05-05T09:04:01.218Z,9.668024
2023-05-05T09:05:01.227Z,9.668028
2023-05-05T09:06:01.283Z,9.668042
2023-05-05T09:07:01.157Z,9.668010
2023-05-05T09:08:01.160Z,9.668000
2023-05-05T09:09:34.123Z,9.668030
2023-05-05T09:10:01.238Z,9.668030
2023-05-05T09:11:02.137Z,9.668007
2023-05-05T09:12:34.172Z,9.668014
2023-05-05T09:13:01.142Z,9.668048
2023-05-05T09:14:01.084Z,9.667994
2023-05-05T09:15:01.116Z,9.668003
2023-05-05T09:16:01.148Z,9.668075
2023-05-05T09:17:01.670Z,9.668100
2023-05-05T09:18:01.106Z,9.667981
2023-05-05T09:19:01.054Z,9.668001
2023-05-05T09:20:01.067Z,9.668044
2023-05-05T09:21:01.082Z,9.668002
2023-05-05T09:22:01.145Z,9.667990
2023-05-05T09:23:01.042Z,9.667995
2023-05-05T09:24:07.404Z,9.668024
2023-05-05T09:25:03.005Z,9.667998
2023-05-05T09:26:01.026Z,9.668013
2023-05-05T09:27:01.001Z,9.668039
2023-05-05T09:28:02.007Z,9.668022
2023-05-05T09:29:01.956Z,9.668032
2023-05-05T09:30:00.993Z,9.668044
2023-05-05T09:31:02.015Z,9.668047
2023-05-05T09:32:01.000Z,9.668071
2023-05-05T09:33:00.989Z,9.668036
2023-05-05T09:34:00.980Z,9.668023
2023-05-05T09:35:00.939Z,9.668068
2023-05-05T09:36:00.958Z,9.668071
2023-05-05T09:37:00.981Z,9.668025
2023-05-05T09:38:01.000Z,9.668034
2023-05-05T09:39:00.941Z,9.668032
2023-05-05T09:40:00.936Z,9.668040
2023-05-05T09:41:01.025Z,9.668019
2023-05-05T09:42:00.935Z,9.668021
2023-05-05T09:43:00.916Z,9.667990
2023-05-05T09:44:00.906Z,9.667993
2023-05-05T09:45:00.877Z,9.668003
2023-05-05T09:46:01.014Z,9.668005
2023-05-05T09:47:00.853Z,9.668015
2023-05-05T09:48:01.016Z,9.668036
2023-05-05T09:49:00.888Z,9.668080
2023-05-05T09:50:00.889Z,9.668066
2023-05-05T09:51:00.831Z,9.668062
2023-05-05T09:52:00.852Z,9.668064
2023-05-05T09:53:00.879Z,9.668051
2023-05-05T09:54:00.930Z,9.668082
2023-05-05T09:55:00.806Z,9.668083
2023-05-05T09:56:01.593Z,9.668064
2023-05-05T09:57:00.819Z,9.668059
2023-05-05T09:58:00.800Z,9.668057
2023-05-05T09:59:00.877Z,9.668015
2023-05-05T10:00:00.800Z,9.668041
2023-05-05T10:01:00.769Z,9.668028
2023-05-05T10:02:00.855Z,9.668034
2023-05-05T10:03:00.776Z,9.668028
2023-05-05T10:04:00.761Z,9.668050
2023-05-05T10:05:02.298Z,9.668051
2023-05-05T10:06:01.743Z,9.668077
2023-05-05T10:07:00.742Z,9.668050
2023-05-05T10:08:00.729Z,9.668069
2023-05-05T10:09:00.699Z,9.668025
2023-05-05T10:10:00.766Z,9.668037
2023-05-05T10:11:02.193Z,9.668011
2023-05-05T10:12:00.682Z,9.668032
2023-05-05T10:13:00.714Z,9.668015
2023-05-05T10:14:00.684Z,9.668005
2023-05-05T10:15:00.652Z,9.668010
2023-05-05T10:16:00.708Z,9.668035
2023-05-05T10:17:00.696Z,9.668041
2023-05-05T10:18:07.487Z,9.668051
2023-05-05T10:19:02.673Z,9.668005
2023-05-05T10:20:01.690Z,9.668010
2023-05-05T10:21:00.612Z,9.668018
2023-05-05T10:22:01.622Z,9.668015
2023-05-05T10:23:00.602Z,9.668048
2023-05-05T10:24:00.618Z,9.668010
2023-05-05T10:25:00.601Z,9.668003
2023-05-05T10:26:00.792Z,9.668005
2023-05-05T10:27:00.604Z,9.668011
2023-05-05T10:28:00.565Z,9.668025
2023-05-05T10:29:00.555Z,9.668017
2023-05-05T10:30:00.665Z,9.668031
2023-05-05T10:31:00.553Z,9.668072
2023-05-05T10:32:00.598Z,9.668048
2023-05-05T10:33:18.226Z,9.668039
2023-05-05T10:34:02.643Z,9.668037
2023-05-05T10:35:00.535Z,9.668048
2023-05-05T10:36:00.512Z,9.668053
2023-05-05T10:37:01.461Z,9.667993
2023-05-05T10:38:01.483Z,9.668034
2023-05-05T10:39:00.591Z,9.668057
2023-05-05T10:40:00.506Z,9.668079
2023-05-05T10:41:00.505Z,9.668059
2023-05-05T10:42:00.678Z,9.668046
2023-05-05T10:43:00.483Z,9.668058
2023-05-05T10:44:02.835Z,9.668046
2023-05-05T10:45:00.491Z,9.668027
2023-05-05T10:46:00.594Z,9.668059
2023-05-05T10:47:00.468Z,9.668091
2023-05-05T10:48:00.497Z,9.668060
2023-05-05T10:49:00.538Z,9.668054
2023-05-05T10:50:00.443Z,9.668049
2023-05-05T10:51:00.485Z,9.668054
2023-05-05T10:52:00.467Z,9.668032
2023-05-05T10:53:00.406Z,9.668019
2023-05-05T10:54:00.423Z,9.668029
2023-05-05T10:55:00.410Z,9.668053
2023-05-05T10:56:00.371Z,9.668070
2023-05-05T10:57:00.408Z,9.668054
2023-05-05T10:58:00.451Z,9.668027
2023-05-05T10:59:00.966Z,9.668066
2023-05-05T11:00:01.386Z,9.668060
2023-05-05T11:01:00.380Z,9.668047
2023-05-05T11:02:00.319Z,9.668036
2023-05-05T11:03:00.455Z,9.668031
2023-05-05T11:04:01.131Z,9.668023
2023-05-05T11:05:00.348Z,9.668029
2023-05-05T11:06:00.313Z,9.668057
2023-05-05T11:07:00.307Z,9.668066
2023-05-05T11:08:00.316Z,9.668091
2023-05-05T11:09:00.288Z,9.668079
2023-05-05T11:10:00.326Z,9.668073
2023-05-05T11:11:00.327Z,9.668076
2023-05-05T11:12:00.259Z,9.668048
2023-05-05T11:13:00.346Z,9.668054
2023-05-05T11:14:00.361Z,9.668050
2023-05-05T11:15:01.473Z,9.668020
2023-05-05T11:16:00.241Z,9.668031
2023-05-05T11:17:00.276Z,9.668043
2023-05-05T11:18:00.272Z,9.668036
2023-05-05T11:19:00.229Z,9.668051
2023-05-05T11:20:00.309Z,9.668039
2023-05-05T11:21:00.232Z,9.668063
2023-05-05T11:22:00.196Z,9.668090
2023-05-05T11:23:00.233Z,9.668061
2023-05-05T11:24:00.211Z,9.668094
2023-05-05T11:25:01.185Z,9.668044
2023-05-05T11:26:01.979Z,9.668086
2023-05-05T11:27:00.188Z,9.668058
2023-05-05T11:28:00.253Z,9.668043
2023-05-05T11:29:01.186Z,9.667989
2023-05-05T11:30:00.236Z,9.667987
2023-05-05T11:31:00.184Z,9.668002
2023-05-05T11:32:00.139Z,9.668006
2023-05-05T11:33:00.162Z,9.668019
2023-05-05T11:34:00.145Z,9.668006
2023-05-05T11:35:00.136Z,9.667984
2023-05-05T11:36:02.265Z,9.667982
2023-05-05T11:37:00.118Z,9.667985
2023-05-05T11:38:00.073Z,9.667992
2023-05-05T11:39:00.098Z,9.667986
2023-05-05T11:40:00.101Z,9.667979
2023-05-05T11:41:00.130Z,9.667961
2023-05-05T11:42:00.073Z,9.667976
2023-05-05T11:43:00.041Z,9.667987
2023-05-05T11:44:00.066Z,9.667962
2023-05-05T11:45:00.056Z,9.667953
2023-05-05T11:46:00.154Z,9.667977
2023-05-05T11:47:00.721Z,9.667971
2023-05-05T11:48:00.083Z,9.667967
2023-05-05T11:49:00.014Z,9.667995
2023-05-05T11:50:00.057Z,9.667994
2023-05-05T11:50:59.964Z,9.667987
2023-05-05T11:52:00.008Z,9.667952
2023-05-05T11:52:59.970Z,9.667957
2023-05-05T11:53:59.974Z,9.667926
2023-05-05T11:54:59.963Z,9.667997
2023-05-05T11:55:59.965Z,9.668016
2023-05-05T11:56:59.967Z,9.667990
2023-05-05T11:57:59.929Z,9.667954
2023-05-05T11:58:59.950Z,9.667971
2023-05-05T11:59:59.944Z,9.668000
2023-05-05T12:00:59.920Z,9.667985
2023-05-05T12:01:59.941Z,9.667963
2023-05-05T12:03:00.024Z,9.667979
2023-05-05T12:03:59.994Z,9.667956
2023-05-05T12:04:59.960Z,9.667988
2023-05-05T12:05:59.880Z,9.667986
2023-05-05T12:06:59.902Z,9.667939
2023-05-05T12:07:59.958Z,9.667956
2023-05-05T12:08:59.866Z,9.667969